KGLE/GLE METAR and TAF weather

Enter ICAO airport designator
Station Type Date Time Source
KGLE METAR 2021/05/10 00:15 UTC NOAA

KGLE 100015Z AUTO 02009KT 10SM CLR 21/12 A2987 RMK AO2 T02060121


Station Type Date Time Source
KGLE Decoded METAR 2021/05/10 00:15 UTC NOAA

Gainesville, Gainesville Municipal Airport, TX, United States (KGLE) 33-39-05N 097-11-49W
May 09, 2021 - 08:15 PM EDT / 2021.05.10 0015 UTC
Wind: from the NNE (020 degrees) at 10 MPH (9 KT):0
Visibility: 10 mile(s):0
Sky conditions: clear
Temperature: 69.1 F (20.6 C)
Dew Point: 53.8 F (12.1 C)
Relative Humidity: 58%
Pressure (altimeter): 29.87 in. Hg (1011 hPa)
ob: KGLE 100015Z AUTO 02009KT 10SM CLR 21/12 A2987 RMK AO2 T02060121
cycle: 0

Station Type Date Time Source
KGLE TAF UTC NOAA

Error!

Example: see airport list